MMLT

Details ICAO MMLT (LTO)
Name LORETO INTL
Region Mexico
Timezone America/Mazatlan (UTC-6.0)
Plans Departing 15
Arriving 21
Stats Elevation 34 ft / 10 m (AMSL)
Location 25.989194° -111.348347°
Runways 1
Magnetic Variation 9.031° E
Sunrise 2018-05-26 12:36:20 UTC / 2018-05-26 06:36:20 Local
Sunset 2018-05-27 02:11:29 UTC / 2018-05-26 20:11:29 Local
Advertisement - Login to hide

Runways

ID Width Length Bearing (true) Bearing (mag) Surface Threshold Offset Overrun Length
16 148 ft / 45 m 7,291 ft / 2,222 m 173.04° 164.01° Asphalt 0 ft / 0 m 185 ft / 56 m
34 148 ft / 45 m 7,291 ft / 2,222 m 353.04° 344.01° Asphalt 0 ft / 0 m 185 ft / 56 m

Map

Weather


0- 5 10 15 20 25 30 35+ Temperature / ° C

Clouds and Precipitation
Forecast for 2018-05-26 18:00 UTC. Updated 5 hours ago

Ground ~20,000 ft ~40,000 ft Winds

METAR

MMLT 262146Z 04020KT 10SM SCT220 32/21 A2977 RMK 8/008

TAF

Not found

Frequencies

Tower 118.40 MHz TWR
Warning: Do not use this data for real-world aviation or navigation. No guarantee of current accuracy is given.